createdAt,value
2022-09-16T06:17:03.961Z,1.85
2022-09-16T06:19:39.331Z,1.80
2022-09-16T06:22:07.124Z,1.60
2022-09-16T06:28:22.500Z,1.88
2022-09-16T06:31:17.770Z,1.65
2022-09-16T06:36:52.934Z,1.63
2022-09-16T06:39:57.209Z,1.50
2022-09-16T06:45:47.737Z,1.95
2022-09-16T06:48:32.999Z,1.80
2022-09-16T06:51:21.791Z,1.83
2022-09-16T06:53:57.816Z,1.75
2022-09-16T06:56:28.172Z,1.45
2022-09-16T06:58:58.764Z,1.48
2022-09-16T07:01:57.840Z,1.42
2022-09-16T07:04:49.933Z,1.30
2022-09-16T07:07:27.314Z,1.70
2022-09-16T07:10:02.420Z,1.35
2022-09-16T07:12:30.790Z,1.75
2022-09-16T07:14:57.986Z,1.35
2022-09-16T07:17:30.092Z,1.60
2022-09-16T07:19:59.109Z,1.50
2022-09-16T07:22:26.423Z,1.45
2022-09-16T07:24:54.696Z,1.85
2022-09-16T07:27:35.715Z,1.50
2022-09-16T07:30:17.652Z,1.60
2022-09-16T07:33:15.665Z,1.23
2022-09-16T07:35:45.041Z,1.10
2022-09-16T07:39:30.304Z,1.13
2022-09-16T07:41:33.016Z,1.40
2022-09-16T07:47:21.423Z,1.25
2022-09-16T07:50:00.082Z,0.90
2022-09-16T07:53:06.876Z,1.27
2022-09-16T07:55:41.222Z,0.73
2022-09-16T07:59:06.863Z,1.13
2022-09-16T08:01:41.366Z,0.70
2022-09-16T08:04:51.049Z,1.10
2022-09-16T08:14:36.752Z,1.10
2022-09-16T08:29:10.323Z,0.80
2022-09-16T08:32:56.695Z,0.52
2022-09-16T08:40:49.062Z,0.60
2022-09-16T08:44:36.951Z,0.68
2022-09-16T08:48:01.878Z,0.73
2022-09-16T09:10:43.362Z,0.63
2022-09-16T09:14:46.377Z,0.60
2022-09-16T09:22:54.124Z,0.55
2022-09-16T09:26:53.991Z,0.98
2022-09-16T10:24:08.257Z,0.47
2022-09-16T10:40:11.972Z,0.47
2022-09-16T11:07:19.332Z,0.70
2022-09-16T11:14:52.502Z,0.85
2022-09-16T11:18:50.831Z,1.05
2022-09-16T12:13:38.255Z,0.40
2022-09-16T13:39:13.275Z,0.70
2022-09-16T14:22:52.211Z,0.55
2022-09-16T14:42:20.722Z,0.28
2022-09-16T16:35:16.395Z,0.60
2022-09-16T16:37:53.308Z,0.50
2022-09-16T16:40:24.638Z,1.35
2022-09-16T16:42:59.090Z,0.73
2022-09-16T16:45:32.910Z,0.90
2022-09-16T16:48:16.437Z,0.73
2022-09-16T16:51:19.311Z,0.80
2022-09-16T17:03:24.318Z,0.82
2022-09-16T17:06:33.223Z,1.13
2022-09-16T17:55:13.996Z,0.80
2022-09-16T17:58:18.732Z,0.82
2022-09-16T18:08:29.526Z,0.80
2022-09-16T18:11:07.869Z,1.33
2022-09-16T18:17:24.977Z,1.05
2022-09-16T18:19:57.753Z,1.23
2022-09-16T18:22:51.241Z,1.20
2022-09-16T18:25:36.191Z,1.00
2022-09-16T18:29:05.677Z,1.02
2022-09-16T18:31:44.943Z,1.10
2022-09-16T18:34:32.707Z,0.90
2022-09-16T18:41:36.625Z,1.00
2022-09-16T18:44:33.756Z,1.08
2022-09-16T18:50:05.661Z,0.90
2022-09-16T18:53:15.098Z,0.80
2022-09-16T18:55:42.730Z,1.08
2022-09-16T18:58:28.599Z,1.13
2022-09-16T19:01:21.465Z,1.00
2022-09-16T19:04:33.408Z,1.02
2022-09-16T19:07:23.896Z,1.02
2022-09-16T19:10:04.303Z,0.88
2022-09-16T19:13:16.765Z,0.82
2022-09-16T19:19:55.998Z,0.90
2022-09-16T19:23:24.913Z,1.00
2022-09-16T19:26:11.879Z,0.90
2022-09-16T19:28:47.358Z,1.00
2022-09-16T19:35:07.143Z,1.33
2022-09-16T19:37:59.817Z,1.30
2022-09-16T19:40:56.107Z,1.13
2022-09-16T19:44:35.858Z,1.10
2022-09-16T19:47:33.136Z,0.95
2022-09-16T19:50:07.727Z,0.90
2022-09-16T19:52:42.594Z,1.00
2022-09-16T19:55:26.291Z,0.82
2022-09-16T19:58:00.827Z,0.93
2022-09-16T20:00:55.097Z,0.88
2022-09-16T20:03:22.376Z,1.02
2022-09-16T20:06:20.769Z,0.90
2022-09-16T20:08:56.926Z,1.30
2022-09-16T20:11:38.398Z,1.05
